createdAt,value
2023-02-28T00:03:41.771Z,-5.44
2023-02-28T00:08:44.056Z,-5.47
2023-02-28T00:13:49.167Z,-5.49
2023-02-28T00:18:51.828Z,-5.52
2023-02-28T00:23:53.913Z,-5.76
2023-02-28T00:28:55.956Z,-5.60
2023-02-28T00:33:59.316Z,-5.63
2023-02-28T00:39:01.330Z,-5.64
2023-02-28T00:44:03.980Z,-5.78
2023-02-28T00:49:07.892Z,-5.84
2023-02-28T00:54:11.463Z,-5.96
2023-02-28T00:59:17.948Z,-5.95
2023-02-28T01:04:20.389Z,-5.96
2023-02-28T01:09:22.505Z,-6.02
2023-02-28T01:14:24.956Z,-6.14
2023-02-28T01:19:27.051Z,-6.28
2023-02-28T01:24:29.386Z,-6.29
2023-02-28T01:29:31.388Z,-6.34
2023-02-28T01:34:33.421Z,-6.33
2023-02-28T01:39:35.416Z,-6.41
2023-02-28T01:45:06.509Z,-6.39
2023-02-28T01:50:13.658Z,-6.40
2023-02-28T01:55:20.825Z,-6.35
2023-02-28T02:00:25.906Z,-6.31
2023-02-28T02:05:32.183Z,-6.34
2023-02-28T02:10:40.839Z,-6.31
2023-02-28T02:16:05.651Z,-6.35
2023-02-28T02:21:27.619Z,-6.34
2023-02-28T02:26:35.532Z,-6.17
2023-02-28T02:32:01.468Z,-6.27
2023-02-28T02:37:23.244Z,-6.33
2023-02-28T02:42:37.969Z,-6.38
2023-02-28T02:47:41.514Z,-6.31
2023-02-28T02:52:49.924Z,-6.24
2023-02-28T02:58:00.790Z,-6.24
2023-02-28T03:03:03.785Z,-6.25
2023-02-28T03:08:06.857Z,-6.47
2023-02-28T03:13:24.194Z,-6.26
2023-02-28T03:18:33.171Z,-6.31
2023-02-28T03:23:44.502Z,-6.29
2023-02-28T03:29:08.305Z,-6.21
2023-02-28T03:34:23.564Z,-6.23
2023-02-28T03:39:35.136Z,-6.25
2023-02-28T03:44:45.843Z,-6.27
2023-02-28T03:49:54.753Z,-6.27
2023-02-28T03:55:03.930Z,-6.30
2023-02-28T04:00:15.278Z,-6.27
2023-02-28T04:05:17.396Z,-6.34
2023-02-28T04:10:19.847Z,-6.34
2023-02-28T04:15:24.037Z,-6.39
2023-02-28T04:20:26.147Z,-6.36
2023-02-28T04:25:28.328Z,-6.33
2023-02-28T04:30:30.830Z,-6.36
2023-02-28T04:35:33.097Z,-6.31
2023-02-28T04:40:36.576Z,-6.20
2023-02-28T04:45:38.700Z,-6.04
2023-02-28T04:50:40.762Z,-5.76
2023-02-28T04:55:42.846Z,-5.57
2023-02-28T05:00:44.889Z,-4.94
2023-02-28T05:05:46.883Z,-4.56
2023-02-28T05:10:48.934Z,-4.15
2023-02-28T05:15:50.969Z,-3.56
2023-02-28T05:20:53.042Z,-3.19
2023-02-28T05:25:55.320Z,-2.89
2023-02-28T05:30:57.412Z,-2.82
2023-02-28T05:35:59.535Z,-2.44
2023-02-28T05:41:01.636Z,-3.00
2023-02-28T05:46:08.972Z,-2.58
2023-02-28T05:51:11.208Z,-1.90
2023-02-28T05:56:13.336Z,-1.73
2023-02-28T06:01:36.719Z,-1.62
2023-02-28T06:06:39.070Z,-1.52
2023-02-28T06:11:41.863Z,-1.10
2023-02-28T06:16:44.055Z,-0.20
2023-02-28T06:21:46.449Z,-0.23
2023-02-28T06:26:48.537Z,-0.85
2023-02-28T06:31:50.664Z,-1.22
2023-02-28T06:36:53.484Z,-1.59
2023-02-28T06:41:56.408Z,-1.60
2023-02-28T06:46:58.739Z,-1.71
2023-02-28T06:52:00.952Z,-1.95
2023-02-28T06:57:03.047Z,-1.86
2023-02-28T07:02:08.004Z,-2.07
2023-02-28T07:07:10.097Z,-2.11
2023-02-28T07:12:12.210Z,-2.28
2023-02-28T07:17:14.449Z,-2.26
2023-02-28T07:22:16.501Z,-2.07
2023-02-28T07:27:24.880Z,-2.04
2023-02-28T07:32:26.931Z,-1.92
2023-02-28T07:37:29.281Z,-1.75
2023-02-28T07:42:31.289Z,-1.59
2023-02-28T07:47:33.883Z,-1.32
2023-02-28T07:52:37.058Z,-1.35
2023-02-28T07:57:39.222Z,-1.36
2023-02-28T08:02:41.587Z,-1.49
2023-02-28T08:07:43.717Z,-1.44
2023-02-28T08:12:45.912Z,-1.45
2023-02-28T08:17:48.013Z,-1.75
2023-02-28T08:22:50.637Z,-1.56
2023-02-28T08:27:53.515Z,-1.53
2023-02-28T08:32:56.498Z,-1.52
2023-02-28T08:37:58.974Z,-1.52
2023-02-28T08:43:01.445Z,-1.39
2023-02-28T08:48:03.769Z,-1.48
2023-02-28T08:53:05.808Z,-1.56
2023-02-28T08:58:07.874Z,-1.58
2023-02-28T09:03:09.989Z,-1.60
2023-02-28T09:08:12.085Z,-1.32
2023-02-28T09:13:14.458Z,-1.24
2023-02-28T09:18:16.848Z,-1.11
2023-02-28T09:23:19.026Z,-0.97
2023-02-28T09:28:22.119Z,-0.97
2023-02-28T09:33:24.421Z,-0.91
2023-02-28T09:38:26.663Z,-0.77
2023-02-28T09:43:38.945Z,-0.79
2023-02-28T09:48:45.768Z,-0.85
2023-02-28T09:53:50.443Z,-0.62
2023-02-28T09:59:03.747Z,-0.59
2023-02-28T10:04:26.283Z,-0.63
2023-02-28T10:09:34.688Z,-0.72
2023-02-28T10:14:40.967Z,-0.79
2023-02-28T10:20:09.049Z,-0.74
2023-02-28T10:25:24.645Z,-0.82
2023-02-28T10:30:27.258Z,-0.67
2023-02-28T10:35:29.373Z,-0.72
2023-02-28T10:40:36.759Z,-0.68
2023-02-28T10:45:39.376Z,-0.68
2023-02-28T10:51:02.263Z,-0.54
2023-02-28T10:56:04.423Z,-0.62
2023-02-28T11:01:15.262Z,-0.60
2023-02-28T11:06:32.362Z,-0.59
2023-02-28T11:11:45.032Z,-0.58
2023-02-28T11:16:47.274Z,-0.63
2023-02-28T11:21:55.801Z,-0.51
2023-02-28T11:26:58.380Z,-0.38
2023-02-28T11:32:03.574Z,-0.14
2023-02-28T11:37:12.620Z,-0.05
2023-02-28T11:42:41.773Z,-0.17
2023-02-28T11:47:54.632Z,-0.27
2023-02-28T11:53:15.121Z,-0.17
2023-02-28T11:58:38.435Z,-0.19
2023-02-28T12:04:01.207Z,-0.08
2023-02-28T12:09:21.571Z,-0.14
2023-02-28T12:15:01.080Z,-0.04
2023-02-28T12:20:15.583Z,-0.14
2023-02-28T12:25:51.284Z,-0.16
2023-02-28T12:31:19.544Z,-0.06
2023-02-28T12:36:27.346Z,-0.36
2023-02-28T12:41:45.095Z,-0.45
2023-02-28T12:46:52.956Z,-0.31
2023-02-28T12:51:55.248Z,-0.24
2023-02-28T12:57:23.422Z,-0.16
2023-02-28T13:02:28.313Z,-0.17
2023-02-28T13:08:08.593Z,-0.18
2023-02-28T13:13:17.614Z,-0.28
2023-02-28T13:18:38.724Z,-0.16
2023-02-28T13:23:45.202Z,-0.28
2023-02-28T13:29:19.266Z,-0.11
2023-02-28T13:34:21.429Z,-0.19
2023-02-28T13:39:36.409Z,-0.01
2023-02-28T13:45:08.622Z,0.01
2023-02-28T13:50:26.952Z,0.02
2023-02-28T13:55:45.918Z,0.02
2023-02-28T14:01:05.674Z,0.09
2023-02-28T14:06:26.346Z,0.22
2023-02-28T14:11:37.281Z,0.22
2023-02-28T14:16:45.732Z,0.15
2023-02-28T14:22:02.898Z,0.30
2023-02-28T14:27:30.853Z,0.27
2023-02-28T14:33:03.885Z,0.31
2023-02-28T14:38:22.438Z,0.25
2023-02-28T14:43:27.215Z,0.27
2023-02-28T14:48:29.850Z,0.28
2023-02-28T14:53:37.414Z,0.34
2023-02-28T14:58:39.505Z,0.31
2023-02-28T15:03:43.096Z,0.38
2023-02-28T15:08:46.340Z,0.43
2023-02-28T15:13:51.987Z,0.49
2023-02-28T15:19:20.072Z,0.54
2023-02-28T15:24:28.193Z,0.53
2023-02-28T15:29:35.220Z,0.60
2023-02-28T15:34:45.240Z,0.57
2023-02-28T15:39:48.731Z,0.56
2023-02-28T15:44:50.797Z,0.64
2023-02-28T15:49:56.564Z,0.66
2023-02-28T15:54:59.293Z,0.68
2023-02-28T16:00:07.135Z,0.71
2023-02-28T16:05:34.893Z,0.88
2023-02-28T16:10:37.001Z,0.84
2023-02-28T16:15:43.447Z,0.90
2023-02-28T16:20:45.826Z,1.00
2023-02-28T16:25:48.029Z,1.06
2023-02-28T16:30:52.822Z,1.24
2023-02-28T16:35:54.861Z,1.26
2023-02-28T16:41:00.848Z,1.30
2023-02-28T16:46:04.795Z,1.24
2023-02-28T16:51:07.953Z,1.20
2023-02-28T16:56:30.525Z,1.33
2023-02-28T17:01:34.053Z,1.18
2023-02-28T17:06:36.487Z,1.13
2023-02-28T17:11:38.551Z,1.03
2023-02-28T17:16:41.497Z,1.22
2023-02-28T17:21:44.441Z,1.35
2023-02-28T17:26:46.594Z,1.25
2023-02-28T17:31:49.179Z,1.00
2023-02-28T17:36:53.258Z,0.75
2023-02-28T17:41:56.497Z,0.60
2023-02-28T17:46:58.706Z,0.49
2023-02-28T17:52:01.084Z,0.44
2023-02-28T17:57:03.357Z,0.36
2023-02-28T18:02:05.481Z,0.31
2023-02-28T18:07:12.427Z,0.29
2023-02-28T18:12:14.438Z,0.18
2023-02-28T18:17:16.660Z,0.09
2023-02-28T18:22:18.698Z,0.03
2023-02-28T18:27:20.776Z,-0.03
2023-02-28T18:32:23.110Z,-0.03
2023-02-28T18:37:25.952Z,-0.02
2023-02-28T18:42:28.407Z,-0.04
2023-02-28T18:47:30.398Z,-0.05
2023-02-28T18:52:32.424Z,-0.02
2023-02-28T18:57:34.654Z,0.04
2023-02-28T19:02:37.303Z,0.05
2023-02-28T19:07:39.348Z,0.06
2023-02-28T19:12:43.371Z,0.09
2023-02-28T19:17:46.362Z,0.13
2023-02-28T19:22:48.492Z,0.15
2023-02-28T19:27:54.006Z,0.19
2023-02-28T19:32:56.119Z,0.11
2023-02-28T19:37:59.927Z,0.13
2023-02-28T19:43:04.235Z,0.12
2023-02-28T19:48:09.955Z,-0.01
2023-02-28T19:53:12.106Z,-0.05
2023-02-28T19:58:14.351Z,-0.07
2023-02-28T20:03:18.567Z,-0.06
2023-02-28T20:08:20.628Z,-0.04
2023-02-28T20:13:28.173Z,-0.23
2023-02-28T20:18:30.493Z,-0.36
2023-02-28T20:23:32.562Z,-0.61
2023-02-28T20:28:34.898Z,-0.76
2023-02-28T20:33:36.933Z,-0.92
2023-02-28T20:38:39.128Z,-1.03
2023-02-28T20:43:41.721Z,-1.19
2023-02-28T20:48:43.727Z,-1.27
2023-02-28T20:53:45.868Z,-1.39
2023-02-28T20:58:49.434Z,-1.43
2023-02-28T21:04:00.269Z,-1.49
2023-02-28T21:09:05.961Z,-1.60
2023-02-28T21:14:13.833Z,-1.65
2023-02-28T21:19:16.985Z,-1.77
2023-02-28T21:24:20.382Z,-1.82
2023-02-28T21:29:22.782Z,-1.89
2023-02-28T21:34:27.076Z,-2.00
2023-02-28T21:39:30.250Z,-2.06
2023-02-28T21:44:34.759Z,-2.10
2023-02-28T21:49:39.206Z,-2.16
2023-02-28T21:54:41.201Z,-2.20
2023-02-28T21:59:43.784Z,-2.28
2023-02-28T22:04:45.896Z,-2.37
2023-02-28T22:09:48.022Z,-2.42
2023-02-28T22:14:50.051Z,-2.45
2023-02-28T22:19:53.066Z,-2.52
2023-02-28T22:24:55.102Z,-2.56
2023-02-28T22:29:58.035Z,-2.58
2023-02-28T22:35:00.117Z,-2.59
2023-02-28T22:40:02.229Z,-2.67
2023-02-28T22:45:05.469Z,-2.63
2023-02-28T22:50:07.952Z,-2.66
2023-02-28T22:55:10.750Z,-2.64
2023-02-28T23:00:15.658Z,-2.67
2023-02-28T23:05:18.709Z,-2.67
2023-02-28T23:10:20.782Z,-2.72
2023-02-28T23:15:23.625Z,-2.77
2023-02-28T23:20:25.747Z,-2.79
2023-02-28T23:25:27.795Z,-2.83
2023-02-28T23:30:30.031Z,-2.90
2023-02-28T23:35:35.248Z,-2.92
2023-02-28T23:40:37.386Z,-2.94
2023-02-28T23:45:39.685Z,-2.95
2023-02-28T23:50:41.679Z,-2.97
2023-02-28T23:55:47.536Z,-2.96
